Time;durP1;ratioP1;P1;durP2;ratioP2;P2;SDS_P1;SDS_P2;PMS_P1;PMS_P2;Temp;Humidity;BMP_temperature;BMP_pressure;BME280_temperature;BME280_humidity;BME280_pressure;Samples;Min_cycle;Max_cycle;Signal;HPM_P1;HPM_P2
2022/04/22 00:02:20;;;;;;;6.93;6.23;;;11.40;91.30;;;;;;5016067;28;20230;-54
2022/04/22 00:04:46;;;;;;;6.80;6.00;;;11.30;91.30;;;;;;5016595;28;20172;-53
2022/04/22 00:07:12;;;;;;;6.57;5.90;;;11.30;91.40;;;;;;5016281;28;20246;-53
2022/04/22 00:09:37;;;;;;;7.17;6.27;;;11.30;91.30;;;;;;5017095;28;20188;-52
2022/04/22 00:12:03;;;;;;;6.63;5.73;;;11.20;91.70;;;;;;5016923;28;20195;-53
2022/04/22 00:14:29;;;;;;;6.97;6.27;;;11.20;91.70;;;;;;5017104;28;20188;-59
2022/04/22 00:16:54;;;;;;;6.53;5.83;;;11.20;91.80;;;;;;5017418;28;20181;-56
2022/04/22 00:19:20;;;;;;;6.87;6.17;;;11.20;91.80;;;;;;5016216;28;20597;-53
2022/04/22 00:21:47;;;;;;;6.90;6.20;;;11.20;92.10;;;;;;5016561;28;20565;-53
2022/04/22 00:24:14;;;;;;;6.87;6.07;;;11.10;92.30;;;;;;5015797;28;20196;-55
2022/04/22 00:26:40;;;;;;;6.70;6.10;;;11.10;92.40;;;;;;5016123;28;20231;-54
2022/04/22 00:29:05;;;;;;;8.40;6.20;;;11.10;92.30;;;;;;5016268;28;20176;-57
2022/04/22 00:31:31;;;;;;;7.27;6.57;;;11.00;92.30;;;;;;5016497;28;20186;-55
2022/04/22 00:33:57;;;;;;;8.03;6.40;;;11.00;92.50;;;;;;5015905;28;20617;-54
2022/04/22 00:36:23;;;;;;;6.73;5.90;;;11.00;92.40;;;;;;5016394;28;20212;-54
2022/04/22 00:38:48;;;;;;;7.53;6.30;;;11.00;92.60;;;;;;5016336;28;20168;-56
2022/04/22 00:41:14;;;;;;;7.03;6.33;;;11.00;92.60;;;;;;5016431;28;20177;-53
2022/04/22 00:43:50;;;;;;;6.80;6.10;;;10.90;92.60;;;;;;5016104;28;20200;-53
2022/04/22 00:46:19;;;;;;;7.67;6.47;;;10.90;92.90;;;;;;5015994;28;20616;-52
2022/04/22 00:48:45;;;;;;;8.00;6.10;;;10.90;93.00;;;;;;5016184;28;20176;-53
2022/04/22 00:51:12;;;;;;;6.93;6.23;;;10.90;93.00;;;;;;5016246;28;20546;-53
2022/04/22 00:53:40;;;;;;;7.53;6.73;;;10.80;93.10;;;;;;5015734;28;20204;-56
2022/04/22 00:56:08;;;;;;;7.60;6.47;;;10.80;93.10;;;;;;5015688;28;20173;-54
2022/04/22 00:58:42;;;;;;;7.00;6.30;;;10.80;93.20;;;;;;5015643;28;20200;-54
2022/04/22 01:01:08;;;;;;;8.30;6.57;;;10.80;93.50;;;;;;5015858;28;20200;-56
2022/04/22 01:03:34;;;;;;;7.60;6.63;;;13.00;94.80;;;;;;5015070;28;20209;-54
2022/04/22 01:11:34;;;;;;;6.60;6.00;;;10.70;93.90;;;;;;5016154;28;20242;-53
2022/04/22 01:14:00;;;;;;;6.60;6.00;;;12.60;95.00;;;;;;5015187;28;20207;-54
2022/04/22 01:16:25;;;;;;;6.87;6.17;;;10.60;94.00;;;;;;5015081;28;20180;-58
2022/04/22 01:18:52;;;;;;;6.70;6.00;;;10.70;93.90;;;;;;5015957;28;20175;-58
2022/04/22 01:21:18;;;;;;;7.57;6.80;;;10.60;94.00;;;;;;5015269;28;20173;-56
2022/04/22 01:23:44;;;;;;;6.70;6.00;;;10.60;94.10;;;;;;5014432;28;20207;-55
2022/04/22 01:26:10;;;;;;;6.70;6.00;;;10.60;94.20;;;;;;5014107;28;20176;-56
2022/04/22 01:28:36;;;;;;;7.60;6.80;;;10.60;94.30;;;;;;5014113;28;20168;-52
2022/04/22 01:31:02;;;;;;;7.70;6.90;;;10.50;94.40;;;;;;5014095;28;20173;-57
2022/04/22 01:33:28;;;;;;;7.17;6.47;;;10.50;94.80;;;;;;5013622;28;20212;-57
2022/04/22 01:35:53;;;;;;;7.70;6.73;;;10.40;94.80;;;;;;5013837;28;20322;-54
2022/04/22 01:38:19;;;;;;;7.83;6.80;;;10.50;94.90;;;;;;5014072;28;20247;-56
2022/04/22 01:40:45;;;;;;;7.70;6.93;;;10.40;95.10;;;;;;5013622;28;20185;-52
2022/04/22 01:43:10;;;;;;;8.80;7.40;;;10.30;95.00;;;;;;5013552;28;20247;-56
2022/04/22 01:45:36;;;;;;;7.27;6.57;;;10.30;95.00;;;;;;5013688;28;20284;-57
2022/04/22 01:48:02;;;;;;;8.40;7.50;;;10.30;95.20;;;;;;5013786;28;20200;-55
2022/04/22 01:50:28;;;;;;;7.03;6.33;;;;;;;;;;5013595;28;20179;-56
2022/04/22 01:52:53;;;;;;;7.43;6.73;;;10.30;95.10;;;;;;5013182;28;20286;-54
2022/04/22 01:55:19;;;;;;;8.97;6.73;;;10.30;95.40;;;;;;5013779;28;20180;-52
2022/04/22 01:57:45;;;;;;;9.17;6.80;;;10.30;95.60;;;;;;5013405;28;20541;-53
2022/04/22 02:00:11;;;;;;;8.23;7.07;;;10.30;95.60;;;;;;5013716;28;20211;-57
2022/04/22 02:02:37;;;;;;;8.23;7.43;;;10.30;95.60;;;;;;5013122;28;20196;-54
2022/04/22 02:05:03;;;;;;;7.70;6.90;;;10.20;95.90;;;;;;5013797;28;20179;-56
2022/04/22 02:07:29;;;;;;;8.47;7.63;;;10.20;95.90;;;;;;5013074;28;20262;-53
2022/04/22 02:09:55;;;;;;;7.90;6.93;;;10.20;96.10;;;;;;5013380;28;20602;-55
2022/04/22 02:12:20;;;;;;;8.60;7.47;;;9.90;96.50;;;;;;5012685;28;20761;-56
2022/04/22 02:14:46;;;;;;;8.70;7.10;;;10.10;96.20;;;;;;5013279;28;20173;-54
2022/04/22 02:17:12;;;;;;;8.40;7.43;;;10.10;96.10;;;;;;5012580;28;20295;-57
2022/04/22 02:19:37;;;;;;;8.57;7.63;;;10.10;96.30;;;;;;4995372;28;20597;-56
2022/04/22 02:22:03;;;;;;;8.03;7.23;;;10.00;96.30;;;;;;5013291;28;20697;-53
2022/04/22 02:24:28;;;;;;;9.17;7.10;;;10.10;96.60;;;;;;5012499;28;20782;-57
2022/04/22 02:29:38;;;;;;;8.03;7.20;;;10.00;96.60;;;;;;5012897;28;20206;-53
2022/04/22 02:32:04;;;;;;;7.80;7.03;;;9.90;97.30;;;;;;5013070;28;20216;-56
2022/04/22 02:34:31;;;;;;;8.17;7.17;;;9.90;97.10;;;;;;5012394;28;20192;-56
2022/04/22 02:36:56;;;;;;;8.40;7.57;;;9.90;97.40;;;;;;5013088;28;20180;-55
2022/04/22 02:39:22;;;;;;;8.53;7.63;;;9.90;97.60;;;;;;5012554;28;20183;-54
2022/04/22 02:47:36;;;;;;;7.73;6.93;;;9.80;97.40;;;;;;4952352;29;20281;-53
2022/04/22 02:50:01;;;;;;;9.70;8.00;;;9.80;98.00;;;;;;4952111;29;20668;-55
2022/04/22 02:52:27;;;;;;;7.57;6.87;;;10.00;97.40;;;;;;4951658;28;20635;-54
2022/04/22 02:54:54;;;;;;;8.13;7.27;;;10.00;97.70;;;;;;4952057;29;20189;-52
2022/04/22 02:57:20;;;;;;;9.80;7.50;;;9.90;97.70;;;;;;4951985;29;20199;-57
2022/04/22 02:59:46;;;;;;;9.33;7.57;;;10.00;97.30;;;;;;4952083;29;20199;-58
2022/04/22 03:02:11;;;;;;;8.10;6.80;;;10.10;97.10;;;;;;4951465;29;20238;-57
2022/04/22 03:04:37;;;;;;;8.93;8.00;;;9.90;97.70;;;;;;4952083;29;20292;-53
2022/04/22 03:07:03;;;;;;;7.87;7.07;;;10.00;97.30;;;;;;4951676;29;20253;-54
2022/04/22 03:09:29;;;;;;;8.10;7.30;;;10.00;97.20;;;;;;4951916;29;20186;-55
2022/04/22 03:11:54;;;;;;;8.17;7.37;;;10.00;97.20;;;;;;4951739;29;20277;-57
2022/04/22 03:14:20;;;;;;;7.87;7.07;;;10.00;97.10;;;;;;4951729;29;20202;-56
2022/04/22 03:16:46;;;;;;;8.57;7.67;;;9.90;97.70;;;;;;5011229;28;20192;-54
2022/04/22 03:19:11;;;;;;;9.20;8.23;;;9.90;97.70;;;;;;5012222;28;20183;-56
2022/04/22 03:21:37;;;;;;;8.63;7.47;;;9.90;97.70;;;;;;5012446;28;20263;-56
2022/04/22 03:24:03;;;;;;;8.43;7.63;;;9.90;97.70;;;;;;5011682;28;20208;-54
2022/04/22 03:26:29;;;;;;;9.23;8.23;;;9.80;97.80;;;;;;5012191;28;20203;-55
2022/04/22 03:28:56;;;;;;;9.83;7.73;;;9.90;97.80;;;;;;5014105;28;20176;-55
2022/04/22 03:31:22;;;;;;;8.80;7.90;;;9.90;98.00;;;;;;5018837;28;20192;-54
2022/04/22 03:33:48;;;;;;;8.63;7.60;;;9.90;97.90;;;;;;5018244;28;20554;-55
2022/04/22 03:36:13;;;;;;;8.70;7.80;;;9.80;97.90;;;;;;5018924;28;20176;-55
2022/04/22 03:38:40;;;;;;;9.10;8.17;;;9.90;97.90;;;;;;5018693;28;20251;-55
2022/04/22 03:41:05;;;;;;;8.97;8.07;;;9.90;97.90;;;;;;5018685;28;20587;-53
2022/04/22 03:43:31;;;;;;;8.73;7.70;;;9.80;97.90;;;;;;5015585;28;20200;-57
2022/04/22 03:45:56;;;;;;;8.27;7.47;;;9.80;98.40;;;;;;5016487;28;20652;-57
2022/04/22 03:48:22;;;;;;;8.43;7.20;;;9.80;98.10;;;;;;5017773;28;20235;-53
2022/04/22 03:50:47;;;;;;;9.07;8.17;;;9.80;98.10;;;;;;5017966;28;20172;-56
2022/04/22 03:53:13;;;;;;;8.37;7.57;;;9.80;98.10;;;;;;5017829;28;20216;-56
2022/04/22 03:55:42;;;;;;;8.53;7.63;;;9.80;98.10;;;;;;5018665;28;20184;-55
2022/04/22 03:58:11;;;;;;;8.87;7.97;;;9.80;98.10;;;;;;5018111;28;20562;-56
2022/04/22 04:00:48;;;;;;;8.70;7.80;;;9.80;98.20;;;;;;5018703;28;20184;-53
2022/04/22 04:03:23;;;;;;;9.33;8.10;;;9.70;98.10;;;;;;5017172;28;20204;-52
2022/04/22 04:05:50;;;;;;;8.70;7.70;;;9.70;98.10;;;;;;5018593;28;20676;-54
2022/04/22 04:08:17;;;;;;;8.90;8.00;;;9.70;98.20;;;;;;5018132;28;20227;-51
2022/04/22 04:16:12;;;;;;;8.40;7.60;;;9.70;98.10;;;;;;5020126;28;20244;-58
2022/04/22 04:18:38;;;;;;;9.13;8.13;;;9.70;98.20;;;;;;5019256;28;20749;-57
2022/04/22 04:23:51;;;;;;;8.90;8.00;;;9.70;98.00;;;;;;5017865;28;20211;-54
2022/04/22 04:26:17;;;;;;;8.90;8.00;;;9.80;98.20;;;;;;5018064;28;20181;-56
2022/04/22 04:28:47;;;;;;;9.13;7.30;;;9.80;98.10;;;;;;5018103;28;20234;-52
2022/04/22 04:31:13;;;;;;;8.60;7.70;;;9.80;98.00;;;;;;5018432;28;20673;-54
2022/04/22 04:33:39;;;;;;;9.13;8.23;;;9.80;98.10;;;;;;5018019;28;20204;-53
2022/04/22 04:36:06;;;;;;;8.70;7.80;;;9.80;98.10;;;;;;5017882;28;20183;-55
2022/04/22 04:38:32;;;;;;;8.80;7.87;;;9.80;98.10;;;;;;5018259;28;20179;-56
2022/04/22 04:40:58;;;;;;;9.03;8.00;;;9.80;98.30;;;;;;5015834;28;20179;-53
2022/04/22 04:43:24;;;;;;;8.73;7.93;;;9.80;98.10;;;;;;5014806;28;20209;-55
2022/04/22 04:45:50;;;;;;;9.97;8.10;;;;;;;;;;5015118;28;20650;-58
2022/04/22 04:48:17;;;;;;;9.00;8.10;;;9.90;97.90;;;;;;5014511;28;20212;-54
2022/04/22 04:50:43;;;;;;;9.00;8.10;;;;;;;;;;5015371;28;20172;-56
2022/04/22 04:53:09;;;;;;;8.67;7.77;;;10.00;97.40;;;;;;5014488;28;20212;-56
2022/04/22 04:55:35;;;;;;;9.37;8.47;;;10.00;97.60;;;;;;5015223;28;20172;-54
2022/04/22 04:58:01;;;;;;;9.07;8.03;;;10.00;97.60;;;;;;5014584;28;20172;-55
2022/04/22 05:00:26;;;;;;;9.60;8.63;;;10.10;97.50;;;;;;5015423;28;20180;-54
2022/04/22 05:02:52;;;;;;;9.00;8.10;;;10.10;97.40;;;;;;5014553;28;20972;-54
2022/04/22 05:05:18;;;;;;;9.60;8.60;;;10.10;97.60;;;;;;5014598;28;20200;-53
2022/04/22 05:07:57;;;;;;;10.13;8.87;;;10.10;97.50;;;;;;5014470;28;20243;-57
2022/04/22 05:10:27;;;;;;;9.30;8.40;;;10.20;97.20;;;;;;5014463;28;20169;-53
2022/04/22 05:12:53;;;;;;;9.80;8.80;;;10.20;97.40;;;;;;5014334;28;20220;-54
2022/04/22 05:15:22;;;;;;;9.47;8.50;;;10.30;97.60;;;;;;5014511;28;20187;-53
2022/04/22 05:17:49;;;;;;;10.80;9.70;;;9.70;97.90;;;;;;5014682;28;20180;-54
2022/04/22 05:20:16;;;;;;;10.67;9.00;;;10.30;97.60;;;;;;5014570;28;20196;-59
2022/04/22 05:22:42;;;;;;;9.47;8.53;;;10.40;97.50;;;;;;5014035;28;20195;-53
2022/04/22 05:25:10;;;;;;;10.10;9.10;;;10.50;97.40;;;;;;5014292;28;20199;-56
2022/04/22 05:27:36;;;;;;;10.03;9.03;;;;;;;;;;5013828;28;20200;-54
2022/04/22 05:32:48;;;;;;;10.93;9.37;;;10.60;97.50;;;;;;5014055;28;20238;-55
2022/04/22 05:35:19;;;;;;;10.13;9.13;;;10.70;97.30;;;;;;5014220;28;20176;-55
2022/04/22 05:37:50;;;;;;;10.00;8.83;;;10.60;97.50;;;;;;5013934;28;20242;-53
2022/04/22 05:40:18;;;;;;;9.50;8.60;;;10.70;97.30;;;;;;5014364;28;20179;-55
2022/04/22 05:42:44;;;;;;;9.87;8.87;;;10.80;97.30;;;;;;5013346;28;20282;-54
2022/04/22 05:45:11;;;;;;;9.93;8.93;;;10.70;97.30;;;;;;5013937;28;20549;-56
2022/04/22 05:47:37;;;;;;;9.80;8.80;;;10.80;97.30;;;;;;5013633;28;20620;-57
2022/04/22 05:50:05;;;;;;;10.10;9.10;;;10.90;97.20;;;;;;5013805;28;20708;-55
2022/04/22 05:52:35;;;;;;;9.73;8.73;;;10.90;97.10;;;;;;5012115;28;20537;-57
2022/04/22 05:55:02;;;;;;;10.20;9.20;;;10.90;97.10;;;;;;5013758;28;20751;-54
2022/04/22 05:57:31;;;;;;;9.60;8.63;;;11.00;97.10;;;;;;5013861;28;20218;-56
2022/04/22 05:59:59;;;;;;;10.07;9.03;;;11.00;97.10;;;;;;5013464;28;20177;-55
2022/04/22 06:02:25;;;;;;;10.47;9.47;;;11.20;97.30;;;;;;5013499;28;20519;-53
2022/04/22 06:04:51;;;;;;;10.13;9.13;;;11.10;97.20;;;;;;5013418;28;20195;-57
2022/04/22 06:07:17;;;;;;;10.50;9.50;;;11.20;97.10;;;;;;5013680;28;20196;-55
2022/04/22 06:12:32;;;;;;;9.73;8.73;;;11.30;97.30;;;;;;4993973;28;20212;-56
2022/04/22 06:15:02;;;;;;;10.23;9.23;;;11.40;97.30;;;;;;5013572;28;20165;-54
2022/04/22 06:17:29;;;;;;;9.77;8.87;;;11.50;97.10;;;;;;5013652;28;20550;-55
2022/04/22 06:19:56;;;;;;;10.47;9.43;;;11.60;96.90;;;;;;5012829;28;20686;-53
2022/04/22 06:22:22;;;;;;;10.00;9.00;;;11.90;96.90;;;;;;5013331;28;20554;-54
2022/04/22 06:24:48;;;;;;;10.00;9.00;;;11.80;97.00;;;;;;5013029;28;20180;-51
2022/04/22 06:27:13;;;;;;;9.90;8.90;;;11.90;97.10;;;;;;5012669;28;20216;-54
2022/04/22 06:29:39;;;;;;;10.20;9.20;;;12.00;97.00;;;;;;5012992;28;20610;-57
2022/04/22 06:32:05;;;;;;;10.23;9.23;;;12.00;96.70;;;;;;5012873;28;20546;-55
2022/04/22 06:34:31;;;;;;;10.23;8.40;;;12.20;96.60;;;;;;4995102;28;20196;-52
2022/04/22 06:36:57;;;;;;;9.67;8.67;;;12.30;96.30;;;;;;4995422;28;20239;-55
2022/04/22 06:39:23;;;;;;;10.87;9.50;;;12.30;96.30;;;;;;5012598;28;20180;-54
2022/04/22 06:47:18;;;;;;;9.67;8.67;;;12.40;96.40;;;;;;4997772;28;20585;-54
2022/04/22 06:49:44;;;;;;;9.20;8.20;;;12.50;96.20;;;;;;5012906;28;20177;-53
2022/04/22 06:52:10;;;;;;;10.27;8.53;;;13.10;96.70;;;;;;5012581;28;20216;-57
2022/04/22 06:54:36;;;;;;;9.80;8.80;;;12.70;96.30;;;;;;5005959;28;20181;-56
2022/04/22 06:57:03;;;;;;;9.03;8.13;;;13.10;96.50;;;;;;5011783;28;20253;-54
2022/04/22 06:59:29;;;;;;;8.87;7.97;;;13.00;96.20;;;;;;5012002;28;20715;-56
2022/04/22 07:01:55;;;;;;;8.70;7.80;;;13.60;95.80;;;;;;5012231;28;20255;-56
2022/04/22 07:04:22;;;;;;;8.73;7.90;;;13.00;96.20;;;;;;5011466;28;20404;-59
2022/04/22 07:06:48;;;;;;;9.30;8.40;;;13.40;95.80;;;;;;5011920;28;20212;-55
2022/04/22 07:09:13;;;;;;;9.77;8.77;;;13.50;95.60;;;;;;5012099;28;20676;-56
2022/04/22 07:11:43;;;;;;;9.27;8.33;;;13.70;95.60;;;;;;5012574;28;20184;-55
2022/04/22 07:14:10;;;;;;;10.60;8.70;;;13.80;95.40;;;;;;5011064;28;20184;-55
2022/04/22 07:16:44;;;;;;;8.40;7.60;;;13.90;95.10;;;;;;5012773;28;20204;-59
2022/04/22 07:19:10;;;;;;;8.60;7.73;;;14.20;95.60;;;;;;5014025;28;20175;-57
2022/04/22 07:21:36;;;;;;;8.90;8.00;;;14.20;95.10;;;;;;5013360;28;20173;-58
2022/04/22 07:24:02;;;;;;;8.40;7.60;;;14.20;94.80;;;;;;5012561;28;20194;-56
2022/04/22 07:26:27;;;;;;;8.60;7.80;;;14.70;95.20;;;;;;5012299;28;20185;-53
2022/04/22 07:28:57;;;;;;;8.87;7.53;;;14.50;94.50;;;;;;5012389;28;20166;-57
2022/04/22 07:31:28;;;;;;;8.40;7.60;;;14.80;94.40;;;;;;5012280;28;20194;-56
2022/04/22 07:33:54;;;;;;;8.57;7.73;;;15.00;95.10;;;;;;5011793;28;20225;-54
2022/04/22 07:36:20;;;;;;;9.27;8.00;;;14.50;94.10;;;;;;5012140;28;20257;-57
2022/04/22 07:38:45;;;;;;;10.07;9.07;;;14.90;93.40;;;;;;5012785;28;20606;-56
2022/04/22 07:41:12;;;;;;;9.67;8.67;;;14.80;92.50;;;;;;5011935;28;20168;-56
2022/04/22 07:49:07;;;;;;;9.03;8.20;;;15.00;93.50;;;;;;5011892;28;20711;-56
2022/04/22 07:51:33;;;;;;;8.87;7.97;;;14.80;93.10;;;;;;5011853;28;20184;-57
2022/04/22 07:53:58;;;;;;;9.50;8.50;;;;;;;;;;4993841;28;20208;-56
2022/04/22 07:56:24;;;;;;;9.27;8.37;;;14.80;93.00;;;;;;5011922;28;20275;-53
2022/04/22 07:58:50;;;;;;;9.10;8.20;;;15.00;93.00;;;;;;5011804;28;20184;-56
2022/04/22 08:01:16;;;;;;;9.40;8.50;;;15.00;93.00;;;;;;4994502;28;20177;-53
2022/04/22 08:03:41;;;;;;;9.40;8.20;;;14.80;93.30;;;;;;5011281;28;20285;-53
2022/04/22 08:06:07;;;;;;;8.70;7.90;;;14.60;93.20;;;;;;5011803;28;20237;-54
2022/04/22 08:08:33;;;;;;;9.20;8.30;;;14.20;93.50;;;;;;5011603;28;20208;-54
2022/04/22 08:10:58;;;;;;;9.30;8.40;;;14.10;94.00;;;;;;5011892;28;20661;-56
2022/04/22 08:13:26;;;;;;;8.80;8.00;;;14.20;93.90;;;;;;5011184;28;20270;-53
2022/04/22 08:15:51;;;;;;;8.80;7.90;;;14.40;94.20;;;;;;5012694;28;20171;-54
2022/04/22 08:18:17;;;;;;;10.37;9.37;;;14.50;94.10;;;;;;5015318;28;20720;-55
2022/04/22 08:20:43;;;;;;;8.53;7.60;;;14.80;93.50;;;;;;5015134;28;20223;-55
2022/04/22 08:23:08;;;;;;;7.50;6.80;;;14.90;92.90;;;;;;5014858;28;20193;-55
2022/04/22 08:25:34;;;;;;;7.90;7.13;;;15.20;92.90;;;;;;5014971;28;20183;-55
2022/04/22 08:28:02;;;;;;;11.10;10.00;;;15.40;92.80;;;;;;5015322;28;20207;-55
2022/04/22 08:30:28;;;;;;;7.97;7.17;;;15.60;92.70;;;;;;5010154;28;20176;-53
2022/04/22 08:32:53;;;;;;;7.47;6.70;;;15.60;92.50;;;;;;5014171;28;20201;-55
2022/04/22 08:35:19;;;;;;;7.10;6.40;;;15.50;92.70;;;;;;5014961;28;20183;-54
2022/04/22 08:37:45;;;;;;;9.20;7.50;;;15.40;93.10;;;;;;5014323;28;20263;-56
2022/04/22 08:40:11;;;;;;;7.93;7.17;;;15.30;92.90;;;;;;5013126;28;20169;-54
2022/04/22 08:42:38;;;;;;;7.53;6.00;;;16.00;92.80;;;;;;5012313;28;20201;-54
2022/04/22 08:45:05;;;;;;;8.90;8.10;;;15.70;92.10;;;;;;5012983;28;20180;-55
2022/04/22 08:50:19;;;;;;;6.60;5.90;;;15.70;92.90;;;;;;5012248;28;20465;-56
2022/04/22 08:52:57;;;;;;;7.07;6.43;;;15.50;92.10;;;;;;5008948;28;20223;-53
2022/04/22 08:55:26;;;;;;;7.00;6.30;;;15.80;99.90;;;;;;5012109;28;20172;-54
2022/04/22 08:57:54;;;;;;;7.28;6.57;;;16.10;93.80;;;;;;5014047;28;20425;-53
2022/04/22 09:00:23;;;;;;;7.33;6.37;;;16.50;93.90;;;;;;5009666;28;20683;-51
2022/04/22 09:02:50;;;;;;;6.60;6.00;;;15.90;91.70;;;;;;5013971;28;20208;-58
2022/04/22 09:05:16;;;;;;;7.80;7.00;;;16.30;95.40;;;;;;5014423;28;20181;-56
2022/04/22 09:07:42;;;;;;;6.17;5.57;;;15.20;93.30;;;;;;5021114;28;20307;-54
2022/04/22 09:10:08;;;;;;;6.20;5.60;;;16.10;93.60;;;;;;5019675;28;20534;-57
2022/04/22 09:12:35;;;;;;;6.60;6.00;;;15.80;93.30;;;;;;5016150;28;20188;-53
2022/04/22 09:15:01;;;;;;;7.13;6.43;;;15.90;92.60;;;;;;5017101;28;20161;-52
2022/04/22 09:17:34;;;;;;;6.73;6.07;;;16.20;91.90;;;;;;5018949;28;20184;-54
2022/04/22 09:20:03;;;;;;;6.00;5.50;;;16.40;91.50;;;;;;5018538;28;20650;-53
2022/04/22 09:22:34;;;;;;;6.50;5.90;;;16.30;91.80;;;;;;5016332;28;20577;-57
2022/04/22 09:25:00;;;;;;;6.33;5.70;;;16.30;91.90;;;;;;5018044;28;20220;-53
2022/04/22 09:27:33;;;;;;;6.47;5.87;;;16.30;91.90;;;;;;5017258;28;20677;-58
2022/04/22 09:30:00;;;;;;;6.47;5.83;;;16.30;92.30;;;;;;5018093;28;20169;-58
2022/04/22 09:32:33;;;;;;;7.80;6.60;;;15.50;92.10;;;;;;5017503;28;20172;-54
2022/04/22 09:35:17;;;;;;;7.07;6.37;;;15.40;92.40;;;;;;5017868;28;20597;-56
2022/04/22 09:43:23;;;;;;;8.10;6.53;;;15.80;92.90;;;;;;5018101;28;20327;-53
2022/04/22 09:45:52;;;;;;;7.40;6.60;;;16.00;93.80;;;;;;5011886;28;20853;-55
2022/04/22 09:48:19;;;;;;;6.87;6.23;;;16.20;93.20;;;;;;5018931;28;20670;-54
2022/04/22 09:50:47;;;;;;;6.67;6.07;;;16.70;93.00;;;;;;5018021;28;20228;-56
2022/04/22 09:53:17;;;;;;;6.90;6.03;;;17.00;92.10;;;;;;5015848;28;20213;-53
2022/04/22 09:55:53;;;;;;;7.00;6.30;;;17.00;91.40;;;;;;5017298;28;20177;-59
2022/04/22 09:58:28;;;;;;;7.83;6.83;;;16.90;91.70;;;;;;5016333;28;20655;-55
2022/04/22 10:00:59;;;;;;;7.40;6.67;;;17.30;92.00;;;;;;5013438;28;20165;-53
2022/04/22 10:03:27;;;;;;;6.83;6.10;;;17.60;91.10;;;;;;4999843;28;20186;-54
2022/04/22 10:05:54;;;;;;;7.13;6.43;;;17.70;91.00;;;;;;5007822;28;20184;-56
2022/04/22 10:08:21;;;;;;;6.37;5.77;;;17.70;90.00;;;;;;4999537;28;20199;-55
2022/04/22 10:10:50;;;;;;;6.07;5.50;;;17.40;90.50;;;;;;4997984;28;20331;-54
2022/04/22 10:13:18;;;;;;;7.30;6.70;;;17.20;91.00;;;;;;4987211;28;20203;-54
2022/04/22 10:15:45;;;;;;;8.30;7.50;;;17.00;91.00;;;;;;5012901;28;20527;-55
2022/04/22 10:18:13;;;;;;;7.90;7.07;;;17.00;91.20;;;;;;5013310;28;20180;-60
2022/04/22 10:20:40;;;;;;;8.60;7.80;;;17.10;91.30;;;;;;5004245;28;20187;-60
2022/04/22 10:23:06;;;;;;;7.43;6.73;;;17.20;91.40;;;;;;5004156;28;20199;-61
2022/04/22 10:25:33;;;;;;;7.90;7.07;;;17.40;91.00;;;;;;4985473;28;20795;-60
2022/04/22 10:28:03;;;;;;;7.60;6.80;;;17.50;90.90;;;;;;5013451;28;20203;-60
2022/04/22 10:30:30;;;;;;;8.13;7.43;;;17.60;91.10;;;;;;5013658;28;20164;-57
2022/04/22 10:32:56;;;;;;;8.03;6.87;;;17.70;90.50;;;;;;5012575;28;20557;-60
2022/04/22 10:35:23;;;;;;;7.07;6.40;;;17.80;90.40;;;;;;5013103;28;20169;-58
2022/04/22 10:37:50;;;;;;;7.10;6.50;;;17.80;90.30;;;;;;5012441;28;20184;-58
2022/04/22 10:40:24;;;;;;;7.77;6.97;;;18.00;90.00;;;;;;5010582;28;20534;-57
2022/04/22 10:42:51;;;;;;;7.07;6.37;;;18.20;90.10;;;;;;5001359;28;20207;-58
2022/04/22 10:48:24;;;;;;;7.97;7.17;;;18.20;89.40;;;;;;5008890;28;20233;-58
2022/04/22 10:50:59;;;;;;;8.17;7.37;;;18.40;89.00;;;;;;5013745;28;20676;-60
2022/04/22 10:53:26;;;;;;;8.17;7.03;;;18.70;88.20;;;;;;5011113;28;20231;-59
2022/04/22 10:55:53;;;;;;;7.80;6.80;;;18.90;89.60;;;;;;5010686;28;20186;-57
2022/04/22 10:58:23;;;;;;;7.90;7.10;;;18.90;87.60;;;;;;5005889;28;20658;-57
2022/04/22 11:00:51;;;;;;;9.40;7.00;;;18.90;85.80;;;;;;5005188;28;20544;-58
2022/04/22 11:03:22;;;;;;;7.43;6.73;;;18.80;87.10;;;;;;5017967;28;20740;-61
2022/04/22 11:05:58;;;;;;;9.43;7.33;;;18.90;89.20;;;;;;5026833;28;20168;-56
2022/04/22 11:08:29;;;;;;;8.50;7.70;;;18.90;86.40;;;;;;5006416;28;20294;-57
2022/04/22 11:10:54;;;;;;;7.97;6.87;;;19.60;90.90;;;;;;5010402;28;20176;-56
2022/04/22 11:13:38;;;;;;;8.07;7.27;;;19.10;87.20;;;;;;5010114;28;20238;-58
2022/04/22 11:16:28;;;;;;;7.60;6.20;;;19.40;86.90;;;;;;5010334;28;20256;-58
2022/04/22 11:19:26;;;;;;;7.47;6.77;;;19.30;85.70;;;;;;5003410;28;20247;-59
2022/04/22 11:21:55;;;;;;;7.67;6.87;;;19.20;85.30;;;;;;4949452;29;20194;-61
2022/04/22 11:24:26;;;;;;;7.00;6.40;;;19.30;84.70;;;;;;4950386;29;20214;-59
2022/04/22 11:27:02;;;;;;;7.10;6.30;;;19.40;86.90;;;;;;4951524;29;20210;-59
2022/04/22 11:29:28;;;;;;;6.80;6.20;;;19.40;86.10;;;;;;4951596;29;20257;-59
2022/04/22 11:32:05;;;;;;;6.87;6.20;;;19.60;85.50;;;;;;4951718;29;20279;-59
2022/04/22 11:34:53;;;;;;;7.00;6.30;;;19.90;87.70;;;;;;4951362;29;20214;-60
2022/04/22 11:37:20;;;;;;;7.53;6.83;;;20.00;86.00;;;;;;4951647;29;20232;-58
2022/04/22 11:39:48;;;;;;;6.67;6.00;;;20.00;82.10;;;;;;4951551;29;20178;-58
2022/04/22 11:42:15;;;;;;;10.57;5.97;;;19.90;85.50;;;;;;4951219;29;20174;-55
2022/04/22 11:44:41;;;;;;;6.20;5.60;;;19.70;83.50;;;;;;4951324;29;20190;-59
2022/04/22 11:47:07;;;;;;;6.20;5.60;;;19.60;84.40;;;;;;4951216;29;20203;-59
2022/04/22 11:49:32;;;;;;;6.80;6.10;;;19.50;85.20;;;;;;4951803;28;20179;-57
2022/04/22 11:52:00;;;;;;;6.13;5.57;;;19.50;83.90;;;;;;4955046;29;20265;-58
2022/04/22 11:54:26;;;;;;;6.47;5.87;;;19.30;83.80;;;;;;4954649;29;20210;-59
2022/04/22 11:56:55;;;;;;;6.70;6.00;;;19.20;84.90;;;;;;4970898;28;20421;-58
2022/04/22 11:59:23;;;;;;;6.57;5.97;;;19.10;85.10;;;;;;5015596;28;20226;-60
2022/04/22 12:10:06;;;;;;;5.50;5.10;;;19.30;86.80;;;;;;5015640;28;20179;-58
2022/04/22 12:12:32;;;;;;;5.60;5.10;;;19.60;85.60;;;;;;5015011;28;20165;-54
2022/04/22 12:15:20;;;;;;;6.27;5.40;;;19.70;85.20;;;;;;5015473;28;20168;-59
2022/04/22 12:17:46;;;;;;;6.07;5.50;;;19.70;84.30;;;;;;5015474;28;20180;-59
2022/04/22 12:20:12;;;;;;;6.30;5.70;;;19.40;85.40;;;;;;5015348;28;20172;-60
2022/04/22 12:22:38;;;;;;;5.77;5.17;;;19.40;85.50;;;;;;5014767;28;20207;-57
2022/04/22 12:25:16;;;;;;;5.80;5.20;;;19.30;86.20;;;;;;5015227;28;20169;-58
2022/04/22 12:27:42;;;;;;;6.67;5.40;;;19.20;85.40;;;;;;5015147;28;20338;-58
2022/04/22 12:30:10;;;;;;;5.47;4.93;;;19.10;85.70;;;;;;5015254;28;20173;-61
2022/04/22 12:32:37;;;;;;;6.70;4.87;;;19.00;86.70;;;;;;5014680;28;20201;-58
2022/04/22 12:35:13;;;;;;;6.13;4.93;;;19.00;86.40;;;;;;5014946;28;20180;-61
2022/04/22 12:37:50;;;;;;;6.00;5.40;;;18.80;87.10;;;;;;5015119;28;20184;-60
2022/04/22 12:40:18;;;;;;;5.40;4.90;;;18.80;87.80;;;;;;5014114;28;20189;-59
2022/04/22 12:42:44;;;;;;;6.40;4.93;;;18.70;86.80;;;;;;5014107;28;20208;-59
2022/04/22 12:53:47;;;;;;;4.93;4.40;;;18.70;89.00;;;;;;5014409;28;20215;-56
2022/04/22 12:56:12;;;;;;;5.77;5.27;;;18.70;88.80;;;;;;5014607;28;20272;-58
2022/04/22 12:58:54;;;;;;;5.20;4.80;;;18.80;87.40;;;;;;4997644;28;20219;-60
2022/04/22 13:01:37;;;;;;;4.50;4.10;;;18.70;87.80;;;;;;5013789;28;20664;-57
2022/04/22 13:04:07;;;;;;;5.70;5.10;;;18.50;89.30;;;;;;5014175;28;20198;-56
2022/04/22 13:06:39;;;;;;;6.57;5.00;;;18.40;88.80;;;;;;5014279;28;20168;-58
2022/04/22 13:09:06;;;;;;;5.60;5.10;;;18.30;89.10;;;;;;5014281;28;20176;-59
2022/04/22 13:11:33;;;;;;;5.60;5.10;;;18.00;89.40;;;;;;5014334;28;20550;-56
2022/04/22 13:13:59;;;;;;;5.57;5.00;;;17.90;89.70;;;;;;5013792;28;20844;-59
2022/04/22 13:16:24;;;;;;;6.20;4.40;;;17.80;90.40;;;;;;5014047;28;20164;-59
2022/04/22 13:18:50;;;;;;;3.60;3.30;;;17.80;90.50;;;;;;5015358;28;20186;-57
2022/04/22 13:21:15;;;;;;;2.73;2.53;;;17.70;90.40;;;;;;4996409;28;20655;-59
2022/04/22 13:23:41;;;;;;;4.57;2.50;;;17.40;91.10;;;;;;5013625;28;20686;-56
2022/04/22 13:26:07;;;;;;;2.23;1.80;;;17.30;91.60;;;;;;5013908;28;20172;-58
2022/04/22 13:28:33;;;;;;;1.70;1.60;;;17.10;92.20;;;;;;5014172;28;20208;-55
2022/04/22 13:30:58;;;;;;;2.03;1.70;;;16.70;92.80;;;;;;5013346;28;20180;-56
2022/04/22 13:33:25;;;;;;;1.70;1.60;;;16.50;93.20;;;;;;5012780;28;20200;-60
2022/04/22 13:35:51;;;;;;;4.23;2.60;;;16.40;93.80;;;;;;5011203;28;20658;-60
2022/04/22 13:38:16;;;;;;;4.40;2.10;;;16.10;94.40;;;;;;5005108;28;20263;-58
2022/04/22 13:40:42;;;;;;;1.60;1.50;;;15.90;94.80;;;;;;5006620;28;20187;-60
2022/04/22 13:43:08;;;;;;;3.90;2.20;;;15.80;95.20;;;;;;5010918;28;20246;-60
2022/04/22 13:53:45;;;;;;;2.30;2.00;;;16.10;96.20;;;;;;5012165;28;20220;-60
2022/04/22 13:56:11;;;;;;;2.50;2.07;;;16.10;96.50;;;;;;4995433;28;20164;-58
2022/04/22 13:58:39;;;;;;;2.00;1.90;;;16.10;96.60;;;;;;5013316;28;20185;-57
2022/04/22 14:01:05;;;;;;;1.87;1.77;;;16.10;96.70;;;;;;5008630;28;20176;-58
2022/04/22 14:03:31;;;;;;;3.27;2.17;;;15.90;97.20;;;;;;5014069;28;20283;-58
2022/04/22 14:05:56;;;;;;;2.40;2.20;;;15.80;97.30;;;;;;5009809;28;20189;-56